Time;durP1;ratioP1;P1;durP2;ratioP2;P2;SDS_P1;SDS_P2;PMS_P1;PMS_P2;Temp;Humidity;BMP_temperature;BMP_pressure;BME280_temperature;BME280_humidity;BME280_pressure;Samples;Min_cycle;Max_cycle;Signal;HPM_P1;HPM_P2
2023/04/07 00:00:30;;;;;;;23.00;18.90;;;7.40;99.90;;;;;;5031124;28;20762;-85
2023/04/07 00:02:56;;;;;;;23.15;19.05;;;7.00;99.90;;;;;;5038181;28;20045;-85
2023/04/07 00:05:22;;;;;;;28.10;19.52;;;7.10;99.90;;;;;;5030334;28;20045;-85
2023/04/07 00:07:48;;;;;;;26.88;19.63;;;7.50;99.90;;;;;;5044003;28;20052;-85
2023/04/07 00:10:14;;;;;;;28.15;20.13;;;7.40;99.90;;;;;;5044401;28;20045;-84
2023/04/07 00:12:40;;;;;;;24.38;19.30;;;7.00;99.90;;;;;;5047451;28;20511;-84
2023/04/07 00:15:06;;;;;;;27.65;21.48;;;7.00;99.90;;;;;;5031366;28;20497;-84
2023/04/07 00:17:32;;;;;;;24.55;20.05;;;7.00;99.90;;;;;;5045527;28;20432;-85
2023/04/07 00:19:58;;;;;;;29.83;20.60;;;7.00;99.90;;;;;;5046780;28;20053;-85
2023/04/07 00:22:23;;;;;;;26.13;20.23;;;7.00;99.90;;;;;;5050310;28;20127;-85
2023/04/07 00:24:49;;;;;;;27.95;21.15;;;7.10;99.90;;;;;;5034911;28;20155;-84
2023/04/07 00:27:15;;;;;;;29.65;20.80;;;7.00;99.90;;;;;;5033403;28;20399;-85
2023/04/07 00:29:42;;;;;;;28.17;20.92;;;7.00;99.90;;;;;;5034258;28;20556;-84
2023/04/07 00:32:08;;;;;;;32.13;22.88;;;7.50;99.90;;;;;;5050760;28;20054;-85
2023/04/07 00:34:34;;;;;;;28.73;21.38;;;7.00;99.90;;;;;;5049972;28;20047;-85
2023/04/07 00:37:00;;;;;;;29.73;21.85;;;7.00;99.90;;;;;;5033559;28;20048;-85
2023/04/07 00:39:26;;;;;;;29.25;21.95;;;7.00;99.90;;;;;;5033348;28;20051;-85
2023/04/07 00:41:52;;;;;;;30.65;22.30;;;7.00;99.90;;;;;;5033917;28;20131;-85
2023/04/07 00:44:18;;;;;;;32.78;23.25;;;7.40;99.90;;;;;;5034037;28;20127;-84
2023/04/07 00:46:44;;;;;;;29.92;21.95;;;7.40;99.90;;;;;;5050157;28;20044;-84
2023/04/07 00:49:12;;;;;;;27.73;20.98;;;7.50;99.90;;;;;;5050043;28;20106;-84
2023/04/07 00:51:37;;;;;;;30.55;23.38;;;7.00;99.90;;;;;;5033242;28;20051;-85
2023/04/07 00:54:03;;;;;;;28.65;22.55;;;6.90;99.90;;;;;;5051010;28;20111;-85
2023/04/07 00:56:29;;;;;;;32.60;23.73;;;6.90;99.90;;;;;;5048773;28;20486;-85
2023/04/07 00:58:55;;;;;;;30.58;23.10;;;7.00;99.90;;;;;;5034130;28;20044;-85
2023/04/07 01:01:25;;;;;;;31.65;24.15;;;7.00;99.90;;;;;;5032663;28;20045;-85
2023/04/07 01:04:01;;;;;;;29.52;22.75;;;6.90;99.90;;;;;;5049581;28;20136;-85
2023/04/07 01:06:32;;;;;;;30.63;23.02;;;7.00;99.90;;;;;;5032289;28;20044;-84
2023/04/07 01:09:04;;;;;;;30.38;23.10;;;6.90;99.90;;;;;;5033128;28;20040;-85
2023/04/07 01:11:37;;;;;;;32.50;24.33;;;6.90;99.90;;;;;;5046327;28;20041;-85
2023/04/07 01:14:05;;;;;;;34.25;24.33;;;6.90;99.90;;;;;;5033337;28;20076;-85
2023/04/07 01:16:34;;;;;;;34.83;24.63;;;7.30;99.90;;;;;;5048683;28;20538;-85
2023/04/07 01:19:32;;;;;;;33.90;24.00;;;6.90;99.90;;;;;;5033094;28;20499;-85
2023/04/07 01:21:59;;;;;;;32.92;23.67;;;6.90;99.90;;;;;;5048967;28;20404;-84
2023/04/07 01:24:41;;;;;;;35.63;24.83;;;6.90;99.90;;;;;;5032039;28;20048;-85
2023/04/07 01:27:23;;;;;;;40.45;25.17;;;6.90;99.90;;;;;;5038017;28;20574;-84
2023/04/07 01:29:51;;;;;;;31.80;24.02;;;6.90;99.90;;;;;;5049089;28;20374;-85
2023/04/07 01:32:19;;;;;;;38.22;25.92;;;6.90;99.90;;;;;;5049350;28;20079;-85
2023/04/07 01:34:48;;;;;;;33.40;24.75;;;6.90;99.90;;;;;;5033292;28;20040;-84
2023/04/07 01:37:15;;;;;;;30.65;24.33;;;7.30;99.90;;;;;;5047971;28;20076;-84
2023/04/07 01:39:41;;;;;;;33.53;24.85;;;6.90;99.90;;;;;;5048964;28;20040;-84
2023/04/07 01:42:08;;;;;;;30.52;23.25;;;6.90;99.90;;;;;;5050206;28;20053;-85
2023/04/07 01:44:34;;;;;;;32.45;24.63;;;7.10;99.90;;;;;;5031672;28;20052;-85
2023/04/07 01:47:00;;;;;;;32.70;24.83;;;6.60;99.90;;;;;;5032831;28;20040;-85
2023/04/07 01:49:28;;;;;;;33.63;23.58;;;6.90;99.90;;;;;;5038236;28;20467;-84
2023/04/07 01:51:56;;;;;;;34.88;24.65;;;6.90;99.90;;;;;;5031568;28;20044;-85
2023/04/07 01:54:26;;;;;;;40.70;26.20;;;7.30;99.90;;;;;;5029086;28;20059;-85
2023/04/07 01:56:51;;;;;;;33.50;25.40;;;6.90;99.90;;;;;;5042154;28;20119;-85
2023/04/07 01:59:17;;;;;;;38.67;26.95;;;6.90;99.90;;;;;;5032569;28;20127;-85
2023/04/07 02:01:43;;;;;;;37.10;26.40;;;7.20;99.90;;;;;;5032354;28;20055;-85
2023/04/07 02:04:15;;;;;;;36.28;26.25;;;6.90;99.90;;;;;;5049191;28;20429;-85
2023/04/07 02:06:48;;;;;;;38.35;26.58;;;6.90;99.90;;;;;;5030751;28;20040;-84
2023/04/07 02:09:15;;;;;;;38.13;28.38;;;6.90;99.90;;;;;;5049698;28;20447;-85
2023/04/07 02:11:42;;;;;;;38.08;26.92;;;6.90;99.90;;;;;;5031479;28;20049;-84
2023/04/07 02:14:08;;;;;;;42.15;27.77;;;6.90;99.90;;;;;;5033043;28;20076;-84
2023/04/07 02:16:36;;;;;;;39.75;28.50;;;6.90;99.90;;;;;;5048144;28;20045;-85
2023/04/07 02:19:03;;;;;;;40.85;26.77;;;7.00;99.90;;;;;;5048157;28;20053;-85
2023/04/07 02:21:32;;;;;;;41.85;28.23;;;6.90;99.90;;;;;;5031051;28;20055;-85
2023/04/07 02:24:00;;;;;;;39.85;28.33;;;6.90;99.90;;;;;;5049290;28;20135;-85
2023/04/07 02:26:26;;;;;;;40.17;27.92;;;6.90;99.90;;;;;;5047545;28;20047;-85
2023/04/07 02:28:52;;;;;;;39.63;28.73;;;7.00;99.90;;;;;;5032826;28;20048;-85
2023/04/07 02:31:18;;;;;;;42.40;27.88;;;6.90;99.90;;;;;;5032445;28;20083;-84
2023/04/07 02:33:43;;;;;;;46.42;29.00;;;7.10;99.90;;;;;;5048370;28;20044;-85
2023/04/07 02:36:09;;;;;;;44.10;29.13;;;7.00;99.90;;;;;;5032037;28;20110;-85
2023/04/07 02:38:34;;;;;;;43.53;29.00;;;6.90;99.90;;;;;;5032448;28;20523;-84
2023/04/07 02:41:00;;;;;;;38.85;28.40;;;7.00;99.90;;;;;;5032186;28;20484;-85
2023/04/07 02:43:26;;;;;;;41.80;28.23;;;6.90;99.90;;;;;;5048699;28;20059;-85
2023/04/07 02:45:51;;;;;;;46.15;28.52;;;6.90;99.90;;;;;;5031905;28;20049;-85
2023/04/07 02:48:17;;;;;;;41.72;28.63;;;6.90;99.90;;;;;;5041861;28;20041;-85
2023/04/07 02:50:43;;;;;;;42.50;29.00;;;6.90;99.90;;;;;;5043657;28;20051;-84
2023/04/07 02:53:09;;;;;;;42.97;29.17;;;6.90;99.90;;;;;;5032159;28;20040;-84
2023/04/07 02:55:35;;;;;;;41.97;29.88;;;6.90;99.90;;;;;;5031598;28;20041;-85
2023/04/07 02:58:00;;;;;;;48.45;28.85;;;7.70;99.90;;;;;;5032410;28;20056;-84
2023/04/07 03:00:26;;;;;;;45.40;28.70;;;6.90;99.90;;;;;;5031436;28;20049;-85
2023/04/07 03:02:52;;;;;;;48.25;31.42;;;6.90;99.90;;;;;;5032570;28;20037;-84
2023/04/07 03:05:18;;;;;;;38.80;28.42;;;6.90;99.90;;;;;;5047966;28;20519;-84
2023/04/07 03:07:43;;;;;;;50.65;30.73;;;6.90;99.90;;;;;;5031194;28;20052;-85
2023/04/07 03:10:09;;;;;;;42.90;28.48;;;7.40;99.90;;;;;;5031307;28;20058;-85
2023/04/07 03:12:35;;;;;;;37.67;27.60;;;6.90;99.90;;;;;;5031804;28;20131;-84
2023/04/07 03:15:01;;;;;;;36.80;26.83;;;7.20;99.90;;;;;;5048302;28;20048;-85
2023/04/07 03:17:27;;;;;;;38.97;27.73;;;7.40;99.90;;;;;;5031260;28;20048;-85
2023/04/07 03:19:52;;;;;;;40.40;26.50;;;7.30;99.90;;;;;;5032204;28;20091;-84
2023/04/07 03:22:18;;;;;;;35.58;25.15;;;7.40;99.90;;;;;;5030183;28;20037;-84
2023/04/07 03:24:44;;;;;;;41.53;27.90;;;7.10;99.90;;;;;;5031942;28;20403;-84
2023/04/07 03:27:10;;;;;;;36.63;26.05;;;6.80;99.90;;;;;;5034782;28;20071;-85
2023/04/07 03:29:35;;;;;;;38.92;26.67;;;6.80;99.90;;;;;;5034447;28;20384;-85
2023/04/07 03:32:01;;;;;;;37.50;25.27;;;6.90;99.90;;;;;;5035596;28;20051;-85
2023/04/07 03:34:27;;;;;;;32.88;23.65;;;6.80;99.90;;;;;;5051245;28;20048;-85
2023/04/07 03:36:53;;;;;;;35.00;25.73;;;6.80;99.90;;;;;;5034514;28;20048;-85
2023/04/07 03:39:18;;;;;;;37.75;25.38;;;6.90;99.90;;;;;;5035459;28;20036;-85
2023/04/07 03:41:44;;;;;;;32.80;24.13;;;6.80;99.90;;;;;;5035088;28;20477;-86
2023/04/07 03:44:10;;;;;;;34.72;24.77;;;6.80;99.90;;;;;;5051400;28;20053;-85
2023/04/07 03:46:35;;;;;;;32.97;25.02;;;6.80;99.90;;;;;;5034430;28;20076;-85
2023/04/07 03:49:01;;;;;;;34.53;24.08;;;6.80;99.90;;;;;;5040605;28;20036;-85
2023/04/07 03:51:27;;;;;;;35.05;25.02;;;6.80;99.90;;;;;;5034112;28;20136;-85
2023/04/07 03:53:53;;;;;;;32.88;23.98;;;6.80;99.90;;;;;;5034966;28;20040;-85
2023/04/07 03:56:19;;;;;;;33.47;25.50;;;6.80;99.90;;;;;;5051237;28;20102;-85
2023/04/07 03:58:45;;;;;;;34.10;24.15;;;7.30;99.90;;;;;;5034370;28;20059;-85
2023/04/07 04:01:11;;;;;;;36.75;24.25;;;6.80;99.90;;;;;;5035026;28;20168;-86
2023/04/07 04:03:37;;;;;;;37.70;26.80;;;6.80;99.90;;;;;;5034998;28;20576;-85
2023/04/07 04:06:03;;;;;;;37.75;26.13;;;6.80;99.90;;;;;;5049961;28;20063;-85
2023/04/07 04:08:28;;;;;;;31.52;24.63;;;6.70;99.90;;;;;;5051689;28;20051;-85
2023/04/07 04:10:54;;;;;;;35.65;24.30;;;6.80;99.90;;;;;;5051027;28;20040;-86
2023/04/07 04:13:21;;;;;;;33.95;25.15;;;6.80;99.90;;;;;;5033748;28;20064;-84
2023/04/07 04:15:46;;;;;;;33.75;24.48;;;6.80;99.90;;;;;;5035110;28;20119;-85
2023/04/07 04:18:21;;;;;;;33.30;23.42;;;6.80;99.90;;;;;;5050640;28;20052;-86
2023/04/07 04:20:47;;;;;;;35.42;23.77;;;6.70;99.90;;;;;;5033574;28;20574;-86
2023/04/07 04:23:14;;;;;;;33.00;23.55;;;6.80;99.90;;;;;;5034954;28;20044;-85
2023/04/07 04:25:39;;;;;;;34.05;23.17;;;7.50;99.90;;;;;;5033900;28;20366;-85
2023/04/07 04:28:05;;;;;;;33.47;23.15;;;6.90;99.90;;;;;;5034469;28;20400;-85
2023/04/07 04:30:31;;;;;;;35.15;22.67;;;6.90;99.90;;;;;;5051061;28;20372;-85
2023/04/07 04:32:57;;;;;;;29.05;22.05;;;6.80;99.90;;;;;;5033888;28;20480;-86
2023/04/07 04:35:23;;;;;;;31.40;22.17;;;6.80;99.90;;;;;;5033718;28;20135;-85
2023/04/07 04:37:48;;;;;;;32.13;22.45;;;7.00;99.90;;;;;;5050536;28;20053;-86
2023/04/07 04:40:14;;;;;;;27.98;20.42;;;6.80;99.90;;;;;;5049782;28;20040;-85
2023/04/07 04:42:40;;;;;;;28.67;22.00;;;6.70;99.90;;;;;;5031478;28;20048;-85
2023/04/07 04:45:06;;;;;;;29.60;21.63;;;6.70;99.90;;;;;;5023790;28;20159;-85
2023/04/07 04:47:32;;;;;;;31.35;21.10;;;6.70;99.90;;;;;;5026625;28;20036;-85
2023/04/07 04:49:58;;;;;;;30.48;22.40;;;6.70;99.90;;;;;;5047511;28;20155;-84
2023/04/07 04:52:23;;;;;;;27.67;21.35;;;6.80;99.90;;;;;;5027628;28;20506;-85
2023/04/07 04:54:49;;;;;;;31.13;21.75;;;6.70;99.90;;;;;;5050466;28;20087;-85
2023/04/07 04:57:15;;;;;;;37.22;23.98;;;6.70;99.90;;;;;;5050384;28;20056;-84
2023/04/07 04:59:41;;;;;;;31.30;22.15;;;6.70;99.90;;;;;;5033896;28;20067;-84
2023/04/07 05:02:07;;;;;;;30.77;21.98;;;6.80;99.90;;;;;;5033804;28;20143;-83
2023/04/07 05:04:32;;;;;;;29.75;22.13;;;6.70;99.90;;;;;;5049888;28;20044;-83
2023/04/07 05:06:58;;;;;;;33.30;22.98;;;6.70;99.90;;;;;;5032103;28;20045;-83
2023/04/07 05:09:24;;;;;;;32.15;22.52;;;6.70;99.90;;;;;;5049705;28;20407;-85
2023/04/07 05:11:50;;;;;;;28.75;21.20;;;7.40;99.90;;;;;;5031908;28;20504;-85
2023/04/07 05:14:15;;;;;;;32.13;22.35;;;6.70;99.90;;;;;;5039339;28;20044;-85
2023/04/07 05:16:41;;;;;;;31.33;22.95;;;6.70;99.90;;;;;;5030898;28;20040;-84
2023/04/07 05:19:07;;;;;;;32.10;23.55;;;6.70;99.90;;;;;;5025938;28;20052;-86
2023/04/07 05:21:32;;;;;;;29.80;21.73;;;6.70;99.90;;;;;;5045578;28;20040;-86
2023/04/07 05:23:58;;;;;;;29.65;21.65;;;6.70;99.90;;;;;;5032563;28;20055;-86
2023/04/07 05:26:24;;;;;;;32.65;22.35;;;6.90;99.90;;;;;;5026079;28;20092;-86
2023/04/07 05:28:50;;;;;;;30.40;21.90;;;6.70;99.90;;;;;;5028949;28;20077;-86
2023/04/07 05:31:16;;;;;;;30.55;22.17;;;6.70;99.90;;;;;;5030781;28;20488;-86
2023/04/07 05:33:41;;;;;;;30.70;22.55;;;6.70;99.90;;;;;;5031826;28;20049;-86
2023/04/07 05:36:07;;;;;;;31.35;22.95;;;6.70;99.90;;;;;;5028867;28;20546;-86
2023/04/07 05:38:33;;;;;;;30.08;22.35;;;6.70;99.90;;;;;;5031067;28;20384;-86
2023/04/07 05:40:58;;;;;;;31.38;22.90;;;6.70;99.90;;;;;;5030345;28;20066;-87
2023/04/07 05:43:24;;;;;;;32.40;22.73;;;7.00;99.90;;;;;;5032580;28;20090;-86
2023/04/07 05:45:50;;;;;;;29.50;22.85;;;6.70;99.90;;;;;;5050321;28;20464;-86
2023/04/07 05:48:15;;;;;;;27.35;21.90;;;6.70;99.90;;;;;;5042338;28;20105;-87
2023/04/07 05:50:44;;;;;;;33.97;23.15;;;6.70;99.90;;;;;;5032057;28;20044;-87
2023/04/07 05:53:10;;;;;;;28.95;22.00;;;6.70;99.90;;;;;;5033175;28;20044;-87
2023/04/07 05:55:42;;;;;;;31.05;22.85;;;6.80;99.90;;;;;;5032292;28;20571;-86
2023/04/07 05:58:08;;;;;;;26.60;21.33;;;6.80;99.90;;;;;;5032617;28;20135;-87
2023/04/07 06:00:33;;;;;;;33.55;23.25;;;6.80;99.90;;;;;;5024982;28;20123;-86
2023/04/07 06:03:00;;;;;;;29.98;23.00;;;6.80;99.90;;;;;;5036105;28;20051;-87
2023/04/07 06:05:26;;;;;;;30.38;22.38;;;6.90;99.90;;;;;;5027830;28;20384;-87
2023/04/07 06:07:53;;;;;;;29.45;21.75;;;6.80;99.90;;;;;;5044899;28;20048;-87
2023/04/07 06:10:19;;;;;;;27.95;21.25;;;6.80;99.90;;;;;;5049419;28;20067;-85
2023/04/07 06:12:44;;;;;;;28.42;21.60;;;6.80;99.90;;;;;;5026813;28;20084;-87
2023/04/07 06:15:10;;;;;;;27.75;21.65;;;6.90;99.90;;;;;;5023727;28;20051;-86
2023/04/07 06:17:36;;;;;;;26.77;20.65;;;6.90;99.90;;;;;;5031643;28;20041;-87
2023/04/07 06:20:02;;;;;;;30.45;21.80;;;6.80;99.90;;;;;;5044294;28;20488;-86
2023/04/07 06:22:28;;;;;;;28.63;21.88;;;6.90;99.90;;;;;;5027720;28;20072;-88
2023/04/07 06:24:53;;;;;;;29.77;21.60;;;7.20;99.90;;;;;;5045464;28;20074;-86
2023/04/07 06:27:20;;;;;;;27.52;21.45;;;6.90;99.90;;;;;;5032223;28;20033;-86
2023/04/07 06:29:46;;;;;;;30.90;22.30;;;6.90;99.90;;;;;;5028573;28;20045;-87
2023/04/07 06:32:12;;;;;;;27.25;21.08;;;6.90;99.90;;;;;;5045172;28;20043;-87
2023/04/07 06:34:38;;;;;;;27.42;20.80;;;7.00;99.90;;;;;;5045721;28;20076;-86
2023/04/07 06:37:04;;;;;;;26.15;20.02;;;7.00;99.90;;;;;;5024619;28;20580;-86
2023/04/07 06:39:30;;;;;;;26.65;21.38;;;7.00;99.90;;;;;;5017355;28;20110;-88
2023/04/07 06:41:56;;;;;;;29.02;21.33;;;7.50;99.90;;;;;;5023419;28;20037;-87
2023/04/07 06:44:48;;;;;;;28.17;21.23;;;7.10;99.90;;;;;;5033005;28;20044;-93
2023/04/07 06:47:20;;;;;;;30.02;20.70;;;7.10;99.90;;;;;;4995558;28;20064;-87
2023/04/07 06:49:45;;;;;;;26.38;20.80;;;7.20;99.90;;;;;;5032928;28;20049;-87
2023/04/07 06:52:11;;;;;;;28.30;21.83;;;7.20;99.90;;;;;;5031627;28;20045;-87
2023/04/07 06:54:37;;;;;;;29.20;20.48;;;7.30;99.90;;;;;;5048504;28;20542;-87
2023/04/07 06:57:02;;;;;;;31.17;20.10;;;7.30;99.90;;;;;;5048633;28;20032;-84
2023/04/07 06:59:28;;;;;;;27.90;20.83;;;7.40;99.90;;;;;;5032010;28;20518;-84
2023/04/07 07:01:54;;;;;;;27.10;21.20;;;7.40;99.90;;;;;;5034726;28;20036;-84
2023/04/07 07:04:19;;;;;;;29.95;21.35;;;7.50;99.90;;;;;;5035473;28;20419;-84
2023/04/07 07:06:45;;;;;;;29.83;20.85;;;7.60;99.90;;;;;;5051698;28;20050;-83
2023/04/07 07:09:11;;;;;;;27.15;20.33;;;7.60;99.90;;;;;;5052012;28;20047;-84
2023/04/07 07:11:37;;;;;;;28.10;20.15;;;7.70;99.90;;;;;;5035441;28;20477;-84
2023/04/07 07:14:02;;;;;;;24.42;18.45;;;7.80;99.90;;;;;;5036145;28;20052;-84
2023/04/07 07:16:28;;;;;;;24.10;18.77;;;7.90;99.90;;;;;;5050947;28;20037;-84
2023/04/07 07:18:54;;;;;;;25.02;18.73;;;8.00;99.90;;;;;;5035937;28;20055;-85
2023/04/07 07:21:20;;;;;;;21.75;18.02;;;8.10;99.90;;;;;;5049990;28;20083;-84
2023/04/07 07:23:45;;;;;;;21.13;16.75;;;8.10;99.90;;;;;;5052831;28;20055;-84
2023/04/07 07:26:11;;;;;;;24.80;17.92;;;8.20;99.90;;;;;;5035008;28;20159;-84
2023/04/07 07:28:37;;;;;;;20.08;17.02;;;8.20;99.90;;;;;;5051609;28;20055;-84
2023/04/07 07:31:09;;;;;;;21.98;16.23;;;8.30;99.90;;;;;;5051295;28;20044;-84
2023/04/07 07:33:35;;;;;;;22.58;16.95;;;8.30;99.90;;;;;;5034696;28;20047;-84
2023/04/07 07:36:00;;;;;;;23.33;18.17;;;8.40;99.90;;;;;;5034256;28;20048;-83
2023/04/07 07:38:26;;;;;;;22.25;17.10;;;8.40;99.90;;;;;;5035002;28;20053;-84
2023/04/07 07:40:52;;;;;;;19.67;15.88;;;8.40;99.90;;;;;;5052023;28;20045;-83
2023/04/07 07:43:18;;;;;;;22.85;16.15;;;8.40;99.90;;;;;;5034967;28;20037;-84
2023/04/07 07:45:44;;;;;;;18.13;15.25;;;8.40;99.90;;;;;;5050974;28;20106;-84
2023/04/07 07:48:10;;;;;;;18.67;15.55;;;8.50;99.90;;;;;;5051694;28;20113;-84
2023/04/07 07:50:36;;;;;;;20.40;15.15;;;8.50;99.90;;;;;;5033371;28;20488;-85
2023/04/07 07:53:01;;;;;;;20.90;15.73;;;8.50;99.90;;;;;;5051774;28;20041;-83
2023/04/07 07:55:27;;;;;;;21.85;15.32;;;8.50;99.90;;;;;;5033813;28;20058;-83
2023/04/07 07:57:53;;;;;;;19.63;15.73;;;8.50;99.90;;;;;;5051096;28;20044;-84
2023/04/07 08:00:19;;;;;;;19.85;16.00;;;8.50;99.90;;;;;;5035195;28;20421;-83
2023/04/07 08:02:45;;;;;;;20.10;14.88;;;8.50;99.90;;;;;;5034637;28;20131;-83
2023/04/07 08:05:11;;;;;;;20.10;15.25;;;8.50;99.90;;;;;;5050702;28;20178;-83
2023/04/07 08:07:37;;;;;;;21.67;16.30;;;8.40;99.90;;;;;;5034294;28;20560;-84
2023/04/07 08:10:03;;;;;;;19.17;15.30;;;8.40;99.90;;;;;;5051065;28;20127;-84
2023/04/07 08:12:29;;;;;;;18.83;14.43;;;8.50;99.90;;;;;;5033554;28;20037;-83
2023/04/07 08:14:54;;;;;;;21.08;15.80;;;8.50;99.90;;;;;;5034394;28;20044;-85
2023/04/07 08:17:20;;;;;;;21.45;17.23;;;8.50;99.90;;;;;;5050643;28;20131;-87
2023/04/07 08:19:46;;;;;;;21.50;16.27;;;8.60;99.90;;;;;;5034097;28;20519;-86
2023/04/07 08:22:11;;;;;;;21.30;16.50;;;8.60;99.90;;;;;;5033050;28;20044;-86
2023/04/07 08:24:46;;;;;;;23.45;18.23;;;8.60;99.90;;;;;;5029094;28;20033;-87
2023/04/07 08:27:24;;;;;;;22.77;17.95;;;8.70;99.90;;;;;;5041053;28;20037;-89
2023/04/07 08:30:00;;;;;;;29.65;22.00;;;8.70;99.90;;;;;;5034564;28;20626;-88
2023/04/07 08:32:36;;;;;;;33.00;24.50;;;8.80;99.90;;;;;;5033006;28;20037;-84
2023/04/07 08:35:02;;;;;;;31.17;24.00;;;8.80;99.90;;;;;;5028883;28;20052;-84
2023/04/07 08:37:32;;;;;;;29.08;23.75;;;8.80;99.90;;;;;;5018396;28;20037;-85
2023/04/07 08:39:57;;;;;;;29.30;23.25;;;8.90;99.90;;;;;;5033464;28;20496;-83
2023/04/07 08:42:27;;;;;;;26.35;21.52;;;9.00;99.90;;;;;;5046571;28;20036;-84
2023/04/07 08:44:56;;;;;;;26.90;21.80;;;9.10;99.90;;;;;;5041493;28;20076;-84
2023/04/07 08:47:25;;;;;;;29.98;22.77;;;9.10;99.90;;;;;;5030424;28;20045;-84
2023/04/07 08:49:52;;;;;;;27.38;22.10;;;9.20;99.90;;;;;;5047149;28;20865;-83
2023/04/07 08:52:22;;;;;;;32.25;22.77;;;9.40;99.90;;;;;;5045062;28;20059;-84
2023/04/07 08:54:48;;;;;;;29.58;21.48;;;9.40;99.90;;;;;;5031373;28;20765;-84
2023/04/07 08:57:15;;;;;;;32.25;22.13;;;9.50;99.90;;;;;;5031565;28;20392;-85
2023/04/07 08:59:44;;;;;;;27.20;22.50;;;9.60;99.90;;;;;;5028448;28;20349;-86
2023/04/07 09:02:10;;;;;;;26.95;21.23;;;9.70;99.90;;;;;;5032985;28;20090;-85
2023/04/07 09:04:36;;;;;;;24.55;19.80;;;9.70;99.90;;;;;;5050038;28;20102;-85
2023/04/07 09:07:02;;;;;;;26.05;21.10;;;9.80;99.90;;;;;;5032523;28;20470;-85
2023/04/07 09:09:28;;;;;;;27.95;21.75;;;9.80;99.90;;;;;;5049566;28;20071;-84
2023/04/07 09:11:54;;;;;;;25.50;20.75;;;9.80;99.90;;;;;;5033177;28;20097;-85
2023/04/07 09:14:20;;;;;;;22.42;18.30;;;9.80;99.90;;;;;;5032382;28;20048;-84
2023/04/07 09:16:46;;;;;;;23.25;18.25;;;9.90;99.90;;;;;;5050219;28;20495;-85
2023/04/07 09:19:12;;;;;;;23.05;18.48;;;9.90;99.90;;;;;;5046354;28;20132;-85
2023/04/07 09:21:51;;;;;;;21.98;17.30;;;10.00;99.90;;;;;;5028248;28;20496;-85
2023/04/07 09:24:30;;;;;;;22.83;17.63;;;10.00;99.90;;;;;;5029023;28;20084;-84
2023/04/07 09:27:10;;;;;;;22.02;16.77;;;10.10;99.90;;;;;;5029690;28;20064;-83
2023/04/07 09:29:36;;;;;;;20.48;14.80;;;10.30;99.90;;;;;;5029205;28;20074;-84
2023/04/07 09:32:02;;;;;;;20.85;16.08;;;10.40;99.90;;;;;;5029266;28;20041;-85
2023/04/07 09:34:30;;;;;;;22.88;16.73;;;10.60;99.90;;;;;;5029306;28;20152;-84
2023/04/07 09:36:57;;;;;;;18.50;15.68;;;10.80;99.90;;;;;;5028058;28;20463;-83
2023/04/07 09:39:23;;;;;;;18.35;13.45;;;11.00;99.90;;;;;;5029163;28;20041;-84
2023/04/07 09:41:49;;;;;;;17.60;13.70;;;11.20;99.90;;;;;;5025607;28;20071;-85
2023/04/07 09:44:15;;;;;;;17.98;14.13;;;11.30;99.90;;;;;;5043216;28;20048;-83
2023/04/07 09:46:51;;;;;;;16.30;12.98;;;11.30;99.90;;;;;;5042355;28;20054;-84
2023/04/07 09:49:19;;;;;;;16.30;13.27;;;11.30;99.90;;;;;;5043719;28;20123;-81
2023/04/07 09:51:54;;;;;;;17.25;12.30;;;11.30;99.90;;;;;;5027993;28;20106;-83
2023/04/07 09:54:33;;;;;;;14.43;12.43;;;11.20;99.90;;;;;;5027457;28;20073;-83
2023/04/07 09:57:00;;;;;;;15.40;11.80;;;11.20;99.90;;;;;;5024596;28;20036;-84
2023/04/07 09:59:28;;;;;;;15.15;12.27;;;11.10;99.90;;;;;;5021363;28;20041;-83
2023/04/07 10:01:54;;;;;;;15.07;11.55;;;11.10;99.90;;;;;;5018838;28;20045;-82
2023/04/07 10:04:21;;;;;;;12.40;9.70;;;11.10;99.90;;;;;;5042560;28;20608;-82
2023/04/07 10:06:47;;;;;;;13.45;11.20;;;11.00;99.90;;;;;;5038898;28;20821;-83
2023/04/07 10:09:13;;;;;;;14.52;11.60;;;11.00;99.90;;;;;;5040058;28;20056;-82
2023/04/07 10:11:41;;;;;;;14.18;11.30;;;11.10;99.90;;;;;;5016525;28;20723;-81
2023/04/07 10:14:09;;;;;;;17.88;12.20;;;11.00;99.90;;;;;;5031316;28;20045;-83
2023/04/07 10:16:37;;;;;;;13.77;11.50;;;11.00;99.90;;;;;;5021049;28;20033;-82
2023/04/07 10:19:04;;;;;;;15.30;12.00;;;11.10;99.90;;;;;;5041514;28;20049;-81
2023/04/07 10:21:35;;;;;;;13.15;11.27;;;11.10;99.90;;;;;;5037671;28;20670;-85
2023/04/07 10:24:19;;;;;;;13.68;11.63;;;11.20;99.90;;;;;;5033651;28;20037;-84
2023/04/07 10:26:52;;;;;;;14.73;12.05;;;11.30;99.90;;;;;;5029195;28;20499;-84
2023/04/07 10:29:18;;;;;;;15.85;12.10;;;11.40;99.90;;;;;;5024302;28;20396;-85
2023/04/07 10:31:45;;;;;;;15.15;11.02;;;11.50;99.90;;;;;;5035763;28;20507;-85
2023/04/07 10:34:11;;;;;;;14.27;11.50;;;11.60;99.90;;;;;;5022798;28;20043;-84
2023/04/07 10:37:08;;;;;;;15.93;11.23;;;11.60;99.90;;;;;;5026671;28;20052;-82
2023/04/07 10:39:34;;;;;;;13.95;11.00;;;11.70;99.90;;;;;;5016689;28;20129;-82
2023/04/07 10:42:00;;;;;;;16.58;11.23;;;11.70;99.90;;;;;;5045849;28;20060;-83
2023/04/07 10:44:39;;;;;;;13.07;10.98;;;11.80;99.90;;;;;;5029701;28;20349;-82
2023/04/07 10:47:05;;;;;;;12.88;10.18;;;11.90;99.90;;;;;;5039354;28;20040;-82
2023/04/07 10:49:33;;;;;;;11.80;9.98;;;12.10;99.90;;;;;;5049714;28;20056;-82
2023/04/07 10:52:21;;;;;;;11.88;10.25;;;12.10;99.90;;;;;;5043195;28;20049;-82
2023/04/07 10:54:46;;;;;;;13.32;10.10;;;12.10;99.90;;;;;;5026336;28;20044;-82
2023/04/07 10:57:14;;;;;;;13.20;9.90;;;12.10;99.90;;;;;;5031558;28;20090;-82
2023/04/07 11:00:01;;;;;;;11.73;9.48;;;12.00;99.90;;;;;;5048403;28;20060;-82
2023/04/07 11:02:27;;;;;;;11.57;9.13;;;12.00;99.90;;;;;;5029969;28;20052;-82
2023/04/07 11:04:52;;;;;;;10.90;9.32;;;11.90;99.90;;;;;;5016597;28;20045;-82
2023/04/07 11:07:19;;;;;;;15.90;13.88;;;12.00;99.90;;;;;;5032798;28;20878;-82
2023/04/07 11:09:45;;;;;;;16.58;14.38;;;12.00;99.90;;;;;;5016126;28;20049;-82
2023/04/07 11:12:25;;;;;;;15.63;12.93;;;12.10;99.90;;;;;;5033386;28;20052;-82
2023/04/07 11:14:51;;;;;;;11.82;8.82;;;12.20;99.90;;;;;;5034744;28;20508;-81
2023/04/07 11:17:17;;;;;;;9.25;7.20;;;12.30;99.90;;;;;;5031991;28;20077;-82
2023/04/07 11:19:52;;;;;;;8.13;6.68;;;12.40;99.90;;;;;;5016041;28;20128;-82
2023/04/07 11:22:18;;;;;;;11.65;9.75;;;12.40;99.90;;;;;;5022133;28;20078;-81
2023/04/07 11:24:45;;;;;;;12.15;7.82;;;12.40;99.90;;;;;;5032335;28;20190;-80
2023/04/07 11:27:13;;;;;;;12.70;9.77;;;12.40;99.90;;;;;;5018617;28;20148;-82
2023/04/07 11:29:39;;;;;;;9.77;7.53;;;12.50;99.90;;;;;;5035903;28;20484;-81
2023/04/07 11:32:05;;;;;;;8.60;6.93;;;12.40;99.90;;;;;;5031727;28;20105;-81
2023/04/07 11:34:32;;;;;;;10.25;6.78;;;12.40;99.90;;;;;;5068743;28;20102;-81
2023/04/07 11:37:17;;;;;;;8.07;7.13;;;12.50;99.90;;;;;;5051079;28;20128;-82
2023/04/07 11:39:45;;;;;;;14.02;9.90;;;12.50;99.90;;;;;;5051030;28;20033;-82
2023/04/07 11:42:10;;;;;;;35.85;23.38;;;12.60;99.90;;;;;;5031761;28;20144;-82
2023/04/07 11:44:45;;;;;;;11.65;8.38;;;12.70;99.90;;;;;;5042331;28;20478;-81
2023/04/07 11:47:10;;;;;;;11.05;7.88;;;12.80;99.90;;;;;;5029791;28;20483;-84
2023/04/07 11:49:44;;;;;;;10.70;8.27;;;13.00;99.90;;;;;;5038904;28;20139;-82
2023/04/07 11:52:10;;;;;;;10.65;8.15;;;13.00;99.90;;;;;;5051478;28;20380;-82
2023/04/07 11:54:41;;;;;;;11.00;7.25;;;13.20;99.90;;;;;;5051372;28;20525;-82
2023/04/07 11:57:10;;;;;;;20.02;8.10;;;13.50;99.90;;;;;;5051201;28;20044;-82
2023/04/07 11:59:37;;;;;;;8.77;6.88;;;13.70;99.90;;;;;;5034917;28;20071;-81
2023/04/07 12:02:03;;;;;;;10.52;7.32;;;13.70;99.90;;;;;;5041092;28;20036;-82
2023/04/07 12:04:30;;;;;;;10.15;7.30;;;13.60;99.90;;;;;;5033858;28;20037;-81
2023/04/07 12:07:06;;;;;;;8.30;6.80;;;13.50;99.90;;;;;;5039209;28;20128;-82
2023/04/07 12:09:35;;;;;;;9.32;7.28;;;13.40;99.90;;;;;;5047842;28;20072;-83
2023/04/07 12:12:02;;;;;;;8.30;7.20;;;13.40;99.90;;;;;;5051186;28;20044;-84
2023/04/07 12:14:28;;;;;;;13.30;7.63;;;13.40;99.90;;;;;;5032533;28;20040;-81
2023/04/07 12:16:55;;;;;;;9.73;7.90;;;13.30;99.90;;;;;;5045363;28;20688;-81
2023/04/07 12:19:22;;;;;;;11.15;7.93;;;13.30;99.90;;;;;;5031988;28;20048;-81
2023/04/07 12:21:48;;;;;;;9.52;7.68;;;13.30;99.90;;;;;;5047839;28;20052;-82
2023/04/07 12:24:14;;;;;;;13.23;8.43;;;13.40;99.90;;;;;;5027465;28;20055;-81
2023/04/07 12:26:39;;;;;;;11.80;8.32;;;13.40;99.90;;;;;;5043254;28;20499;-81
2023/04/07 12:29:05;;;;;;;11.48;8.18;;;13.50;99.90;;;;;;5027127;28;20124;-81
2023/04/07 12:31:32;;;;;;;11.80;8.85;;;13.50;99.90;;;;;;5042692;28;20044;-81
2023/04/07 12:33:58;;;;;;;10.48;7.75;;;13.50;99.90;;;;;;5028522;28;20075;-81
2023/04/07 12:36:26;;;;;;;10.88;7.25;;;13.50;99.90;;;;;;5065341;28;20068;-81